Dayton, Washington
Current Conditions -  °F | °C
As of 11:53 AM on Monday 24 Nov 2014 (Local Time) from KALW Reporting Station
Clear Clear  
Wind Chill: 53°   Ceiling: Unl
Heat Index: 53°   Visibility: 10mi
Dew Point: 37°   Wind: 16mph
Humidity: 55%   Direction: 210°SSW
Pressure: 30.35"   Gusts: NA
Location:  46.32°N, 117.97°W
Report Text: KALW 241953Z 21014KT 10SM CLR 12/03 A3035 RMK AO2 SLP282 T01170028
Loading
Personal Weather Stations






























Interactive Weather Map New forecast layout! Learn more

10-Day Weather Forecast

Advertisements
Track Severe Weather on mobile